Time;durP1;ratioP1;P1;durP2;ratioP2;P2;SDS_P1;SDS_P2;PMS_P1;PMS_P2;Temp;Humidity;BMP_temperature;BMP_pressure;BME280_temperature;BME280_humidity;BME280_pressure;Samples;Min_cycle;Max_cycle;Signal;HPM_P1;HPM_P2
2023/08/01 00:00:52;;;;;;;5.68;4.28;;;;;;;15.84;100.00;99797.59;4983265;28;20504;-89
2023/08/01 00:03:17;;;;;;;6.22;4.45;;;;;;;15.84;100.00;99814.19;4983838;28;20499;-89
2023/08/01 00:05:44;;;;;;;6.40;4.60;;;;;;;15.83;100.00;99804.63;4976077;28;20037;-85
2023/08/01 00:08:12;;;;;;;6.28;4.68;;;;;;;15.83;100.00;99796.78;4978504;28;20018;-85
2023/08/01 00:10:38;;;;;;;6.65;4.55;;;;;;;15.83;100.00;99783.66;4976761;28;20031;-85
2023/08/01 00:13:03;;;;;;;6.55;4.80;;;;;;;15.82;100.00;99787.22;4977069;28;20068;-85
2023/08/01 00:15:28;;;;;;;5.68;4.50;;;;;;;15.82;100.00;99781.97;4974002;28;20166;-88
2023/08/01 00:17:54;;;;;;;7.10;4.60;;;;;;;15.82;100.00;99781.97;4981751;28;20284;-89
2023/08/01 00:20:19;;;;;;;6.05;4.50;;;;;;;15.82;100.00;99776.72;4982946;28;20026;-88
2023/08/01 00:22:44;;;;;;;6.45;4.75;;;;;;;15.82;100.00;99770.63;4984786;28;20134;-88
2023/08/01 00:25:09;;;;;;;5.53;4.32;;;;;;;15.79;100.00;99766.44;4974216;28;20038;-88
2023/08/01 00:27:35;;;;;;;6.30;4.35;;;;;;;15.78;100.00;99780.50;4975075;28;20094;-88
2023/08/01 00:30:00;;;;;;;6.82;4.20;;;;;;;15.78;100.00;99777.88;4974672;28;20142;-89
2023/08/01 00:32:25;;;;;;;7.00;4.28;;;;;;;15.78;100.00;99780.50;4973792;28;20521;-85
2023/08/01 00:34:51;;;;;;;7.28;4.38;;;;;;;15.77;100.00;99776.19;4975726;28;20026;-88
2023/08/01 00:37:17;;;;;;;9.77;4.70;;;;;;;15.75;100.00;99770.19;4978776;28;20058;-88
2023/08/01 00:39:42;;;;;;;7.28;4.30;;;;;;;15.75;100.00;99770.19;4978106;28;20039;-89
2023/08/01 00:42:07;;;;;;;7.00;4.32;;;;;;;15.72;100.00;99766.00;4976752;28;20481;-89
2023/08/01 00:44:33;;;;;;;7.57;4.28;;;;;;;15.71;100.00;99768.72;4984524;28;20022;-89
2023/08/01 00:46:58;;;;;;;6.82;4.53;;;;;;;15.70;100.00;99761.81;4996750;28;20022;-88
2023/08/01 00:49:24;;;;;;;7.32;4.45;;;;;;;15.71;100.00;99763.50;4984272;28;20026;-88
2023/08/01 00:51:50;;;;;;;5.50;4.32;;;;;;;15.70;100.00;99762.63;4977155;28;20386;-88
2023/08/01 00:54:15;;;;;;;5.47;4.20;;;;;;;15.70;100.00;99756.56;4976969;28;20023;-88
2023/08/01 00:56:41;;;;;;;6.63;4.38;;;;;;;15.70;100.00;99756.56;4991117;28;20042;-88
2023/08/01 00:59:07;;;;;;;6.50;4.50;;;;;;;15.70;100.00;99761.81;4976920;28;20351;-88
2023/08/01 01:01:32;;;;;;;6.38;4.45;;;;;;;15.70;100.00;99760.00;4981450;28;20018;-88
2023/08/01 01:03:57;;;;;;;6.88;4.40;;;;;;;15.69;100.00;99755.69;4995947;28;20390;-88
2023/08/01 01:06:29;;;;;;;6.45;4.15;;;;;;;15.69;100.00;99765.38;4982128;28;20030;-88
2023/08/01 01:08:56;;;;;;;6.45;3.97;;;;;;;15.69;100.00;99765.38;4976443;28;20046;-86
2023/08/01 01:11:21;;;;;;;7.32;4.07;;;;;;;15.67;100.00;99757.56;4976481;28;20030;-86
2023/08/01 01:13:46;;;;;;;7.78;3.72;;;;;;;15.68;100.00;99759.25;4976148;28;20022;-88
2023/08/01 01:16:12;;;;;;;6.68;3.67;;;;;;;15.67;100.00;99762.00;4977466;28;20103;-88
2023/08/01 01:18:37;;;;;;;5.68;3.72;;;;;;;15.66;100.00;99755.06;4982619;28;20027;-89
2023/08/01 01:21:02;;;;;;;7.63;3.80;;;;;;;15.65;100.00;99742.91;4984387;28;20030;-89
2023/08/01 01:23:28;;;;;;;8.73;4.35;;;;;;;15.67;100.00;99754.13;4977012;28;20364;-88
2023/08/01 01:25:56;;;;;;;6.47;3.53;;;;;;;15.62;100.00;99750.00;4976318;28;20038;-88
2023/08/01 01:28:22;;;;;;;6.75;3.95;;;;;;;15.60;100.00;99749.28;4977085;28;20158;-88
2023/08/01 01:30:49;;;;;;;7.03;3.80;;;;;;;15.60;100.00;99751.91;4994816;28;20382;-88
2023/08/01 01:33:14;;;;;;;5.82;3.28;;;;;;;15.59;100.00;99750.22;4986738;28;20490;-88
2023/08/01 01:35:40;;;;;;;6.78;3.55;;;;;;;15.58;100.00;99751.16;4976314;28;20040;-88
2023/08/01 01:38:05;;;;;;;10.15;3.50;;;;;;;15.55;100.00;99758.38;4982015;28;20029;-88
2023/08/01 01:40:32;;;;;;;6.50;3.50;;;;;;;15.53;100.00;99755.88;4981038;28;20034;-88
2023/08/01 01:42:58;;;;;;;6.75;3.50;;;;;;;15.51;100.00;99749.88;4979070;28;20386;-88
2023/08/01 01:45:24;;;;;;;5.68;3.85;;;;;;;15.48;100.00;99750.06;4980299;28;20346;-88
2023/08/01 01:47:49;;;;;;;6.43;3.67;;;;;;;15.46;100.00;99744.06;4979500;28;20035;-88
2023/08/01 01:50:14;;;;;;;6.88;4.03;;;;;;;15.44;100.00;99748.56;4975195;28;20039;-88
2023/08/01 01:52:39;;;;;;;6.78;3.75;;;;;;;15.41;100.00;99752.25;4978140;28;20029;-88
2023/08/01 01:55:05;;;;;;;7.75;3.97;;;;;;;15.39;100.00;99745.41;4975503;28;20101;-88
2023/08/01 01:57:30;;;;;;;6.80;3.63;;;;;;;15.38;100.00;99747.19;4981631;28;20377;-85
2023/08/01 01:59:56;;;;;;;5.85;3.83;;;;;;;15.37;100.00;99745.50;4979187;28;20102;-88
2023/08/01 02:02:21;;;;;;;7.53;3.92;;;;;;;15.36;100.00;99743.81;4985102;28;20026;-89
2023/08/01 02:04:48;;;;;;;7.85;3.97;;;;;;;15.36;100.00;99746.44;4975573;28;20097;-88
2023/08/01 02:07:14;;;;;;;6.30;3.75;;;;;;;15.35;100.00;99733.44;4976937;28;20471;-89
2023/08/01 02:09:39;;;;;;;9.95;4.07;;;;;;;15.34;100.00;99732.59;4982298;28;20073;-89
2023/08/01 02:12:05;;;;;;;6.93;4.05;;;;;;;15.34;100.00;99740.44;4984426;28;20117;-88
2023/08/01 02:14:30;;;;;;;5.63;3.90;;;;;;;15.34;100.00;99740.44;4985377;28;20026;-88
2023/08/01 02:16:55;;;;;;;9.10;4.40;;;;;;;15.32;100.00;99737.94;4990029;28;20054;-89
2023/08/01 02:19:21;;;;;;;9.45;4.38;;;;;;;15.32;100.00;99743.19;4978909;28;20088;-89
2023/08/01 02:21:46;;;;;;;7.95;4.53;;;;;;;15.31;100.00;99738.03;4974981;28;20043;-89
2023/08/01 02:24:11;;;;;;;9.32;4.60;;;;;;;15.30;100.00;99736.34;4981228;28;20023;-88
2023/08/01 02:26:36;;;;;;;9.45;4.50;;;;;;;15.28;100.00;99744.31;4987716;28;20112;-89
2023/08/01 02:29:02;;;;;;;8.18;4.68;;;;;;;15.29;100.00;99747.75;4987265;28;20046;-88
2023/08/01 02:31:27;;;;;;;10.20;4.63;;;;;;;15.27;100.00;99745.25;4980936;28;20030;-89
2023/08/01 02:33:52;;;;;;;8.55;4.22;;;;;;;15.26;100.00;99743.56;4973225;28;20022;-89
2023/08/01 02:36:18;;;;;;;8.50;4.55;;;;;;;15.26;100.00;99753.22;4984520;28;20105;-88
2023/08/01 02:38:43;;;;;;;9.68;4.50;;;;;;;15.25;100.00;99751.53;4986662;28;20383;-88
2023/08/01 02:41:08;;;;;;;9.00;4.28;;;;;;;15.25;100.00;99747.13;4976354;28;20386;-88
2023/08/01 02:43:36;;;;;;;8.07;4.70;;;;;;;15.23;100.00;99751.59;4973645;28;20035;-88
2023/08/01 02:46:01;;;;;;;8.63;4.45;;;;;;;15.22;100.00;99752.53;4975211;28;20053;-88
2023/08/01 02:48:27;;;;;;;10.05;4.68;;;;;;;15.22;100.00;99754.34;4974603;28;20050;-89
2023/08/01 02:50:52;;;;;;;7.72;4.63;;;;;;;15.20;100.00;99754.41;4974721;28;20035;-89
2023/08/01 02:53:17;;;;;;;7.70;4.38;;;;;;;15.18;100.00;99762.38;4975361;28;20102;-89
2023/08/01 02:55:46;;;;;;;7.82;4.60;;;;;;;15.17;100.00;99765.13;4975125;28;20066;-89
2023/08/01 02:58:11;;;;;;;7.97;4.50;;;;;;;15.15;100.00;99761.75;4984902;28;20026;-88
2023/08/01 03:00:40;;;;;;;9.45;4.65;;;;;;;15.13;100.00;99761.00;4981445;28;20026;-89
2023/08/01 03:03:06;;;;;;;10.85;4.97;;;;;;;15.12;100.00;99762.75;4974620;28;20035;-88
2023/08/01 03:05:31;;;;;;;9.27;5.10;;;;;;;15.11;100.00;99762.88;4981593;28;20037;-88
2023/08/01 03:07:57;;;;;;;7.72;5.20;;;;;;;15.10;100.00;99763.78;4980405;28;20030;-88
2023/08/01 03:10:22;;;;;;;8.93;5.07;;;;;;;15.09;100.00;99762.13;4983258;28;20505;-89
2023/08/01 03:12:47;;;;;;;8.35;5.47;;;;;;;15.08;100.00;99757.81;4974906;28;20058;-89
2023/08/01 03:15:12;;;;;;;9.98;5.47;;;;;;;15.06;100.00;99749.19;4975856;28;21962;-88
2023/08/01 03:17:38;;;;;;;10.57;6.45;;;;;;;15.03;100.00;99753.69;4974550;28;20065;-89
2023/08/01 03:20:04;;;;;;;10.65;6.30;;;;;;;15.01;100.00;99752.97;4976986;28;20379;-88
2023/08/01 03:22:29;;;;;;;11.60;6.47;;;;;;;15.00;100.00;99746.03;4984971;28;20058;-89
2023/08/01 03:24:54;;;;;;;11.02;6.45;;;;;;;14.98;100.00;99750.53;4977869;28;20426;-89
2023/08/01 03:27:19;;;;;;;11.05;6.50;;;;;;;14.98;100.00;99761.00;4976010;28;20513;-89
2023/08/01 03:29:45;;;;;;;11.95;7.05;;;;;;;14.99;100.00;99760.06;4978861;28;20035;-89
2023/08/01 03:32:10;;;;;;;10.43;7.03;;;;;;;14.98;100.00;99760.16;4975514;28;20478;-90
2023/08/01 03:34:35;;;;;;;13.73;7.80;;;;;;;14.98;100.00;99760.16;4980419;28;20027;-89
2023/08/01 03:37:00;;;;;;;11.70;7.88;;;;;;;14.98;100.00;99760.16;4977252;28;20049;-88
2023/08/01 03:39:26;;;;;;;12.57;7.55;;;;;;;14.98;100.00;99768.88;4990969;28;20030;-88
2023/08/01 03:41:51;;;;;;;12.68;7.35;;;;;;;14.98;100.00;99760.16;4992700;28;20025;-89
2023/08/01 03:44:17;;;;;;;11.88;7.43;;;;;;;14.96;100.00;99760.25;4993432;28;20029;-88
2023/08/01 03:46:42;;;;;;;10.48;7.28;;;;;;;14.97;100.00;99764.56;4993570;28;20060;-89
2023/08/01 03:49:08;;;;;;;13.23;7.57;;;;;;;14.98;100.00;99770.63;4992904;28;20027;-89
2023/08/01 03:51:33;;;;;;;12.60;7.43;;;;;;;14.96;100.00;99762.88;4982175;28;20031;-89
2023/08/01 03:53:58;;;;;;;13.25;8.23;;;;;;;14.96;100.00;99757.63;4973973;28;20030;-88
2023/08/01 03:56:24;;;;;;;14.07;8.32;;;;;;;14.95;100.00;99755.97;4973989;28;20035;-89
2023/08/01 03:58:49;;;;;;;12.52;8.48;;;;;;;14.95;100.00;99771.66;4974170;28;20031;-88
2023/08/01 04:01:14;;;;;;;15.00;8.43;;;;;;;14.96;100.00;99772.50;4976441;28;20451;-89
2023/08/01 04:03:39;;;;;;;16.08;8.68;;;;;;;14.96;100.00;99765.50;4972344;28;20061;-88
2023/08/01 04:06:05;;;;;;;13.95;8.82;;;;;;;14.96;100.00;99773.34;4973895;28;20019;-89
2023/08/01 04:08:30;;;;;;;16.75;9.35;;;;;;;14.96;100.00;99768.13;4976127;28;20022;-88
2023/08/01 04:10:55;;;;;;;14.30;8.88;;;;;;;14.95;100.00;99768.19;4982498;28;20022;-88
2023/08/01 04:13:20;;;;;;;14.52;9.50;;;;;;;14.95;100.00;99770.81;4973388;28;20019;-89
2023/08/01 04:15:46;;;;;;;14.48;8.70;;;;;;;14.96;100.00;99777.72;4976949;28;20038;-88
2023/08/01 04:18:11;;;;;;;17.27;9.88;;;;;;;14.94;100.00;99767.38;4987454;28;20479;-88
2023/08/01 04:20:36;;;;;;;13.38;9.00;;;;;;;14.94;100.00;99777.00;4987717;28;20033;-89
2023/08/01 04:23:01;;;;;;;16.60;9.73;;;;;;;14.93;100.00;99770.91;4984607;28;20039;-89
2023/08/01 04:25:27;;;;;;;17.75;9.23;;;;;;;14.95;100.00;99776.91;4977695;28;20478;-88
2023/08/01 04:27:53;;;;;;;15.88;9.55;;;;;;;14.94;100.00;99767.38;4995173;28;20038;-89
2023/08/01 04:30:18;;;;;;;14.93;9.38;;;;;;;14.94;100.00;99775.22;4988766;28;20467;-88
2023/08/01 04:32:43;;;;;;;15.10;9.52;;;;;;;14.96;100.00;99775.13;4978877;28;20082;-88
2023/08/01 04:35:09;;;;;;;15.38;9.20;;;;;;;14.98;100.00;99770.63;4982634;28;20092;-88
2023/08/01 04:37:34;;;;;;;18.98;9.82;;;;;;;14.98;100.00;99768.88;4980394;28;20033;-89
2023/08/01 04:39:59;;;;;;;14.27;9.35;;;;;;;14.98;100.00;99768.88;4978959;28;20022;-89
2023/08/01 04:42:24;;;;;;;15.85;9.32;;;;;;;15.00;100.00;99777.47;4978472;28;20383;-89
2023/08/01 04:44:50;;;;;;;14.82;9.30;;;;;;;15.02;100.00;99770.38;4986904;28;20026;-89
2023/08/01 04:47:15;;;;;;;15.27;9.43;;;;;;;15.02;100.00;99766.88;4987155;28;20022;-89
2023/08/01 04:49:40;;;;;;;16.40;9.95;;;;;;;15.03;100.00;99773.81;4984998;28;20206;-89
2023/08/01 04:52:06;;;;;;;15.10;9.38;;;;;;;15.05;100.00;99776.31;4985334;28;20053;-88
2023/08/01 04:54:32;;;;;;;16.33;10.07;;;;;;;15.06;100.00;99778.88;4985995;28;20049;-88
2023/08/01 04:56:57;;;;;;;16.13;9.65;;;;;;;15.06;100.00;99781.50;4987185;28;20436;-87
2023/08/01 04:59:22;;;;;;;15.93;9.60;;;;;;;15.08;100.00;99779.63;4987833;28;20022;-89
2023/08/01 05:01:47;;;;;;;16.45;9.85;;;;;;;15.10;100.00;99784.75;4981019;28;20046;-88
2023/08/01 05:04:13;;;;;;;16.92;9.80;;;;;;;15.15;100.00;99782.69;4983626;28;20078;-89
2023/08/01 05:06:38;;;;;;;16.88;10.50;;;;;;;15.19;100.00;99784.19;4984687;28;20497;-89
2023/08/01 05:09:04;;;;;;;19.75;10.38;;;;;;;15.22;100.00;99789.22;4986645;28;20521;-88
2023/08/01 05:11:29;;;;;;;15.63;10.40;;;;;;;15.24;100.00;99792.59;4980096;28;20023;-89
2023/08/01 05:13:54;;;;;;;15.13;10.20;;;;;;;15.25;100.00;99789.03;4980079;28;20014;-88
2023/08/01 05:16:20;;;;;;;19.17;10.20;;;;;;;15.24;100.00;99789.16;4988523;28;20371;-89
2023/08/01 05:18:45;;;;;;;16.15;10.07;;;;;;;15.19;100.00;99784.19;4980477;28;20030;-89
2023/08/01 05:21:10;;;;;;;15.05;9.43;;;;;;;15.18;100.00;99787.75;4979653;28;20475;-89
2023/08/01 05:23:36;;;;;;;16.58;9.52;;;;;;;15.15;100.00;99790.56;4987667;28;20494;-89
2023/08/01 05:26:01;;;;;;;15.55;9.43;;;;;;;15.14;100.00;99786.25;4989129;28;20501;-88
2023/08/01 05:28:26;;;;;;;13.88;9.40;;;;;;;15.13;100.00;99785.41;4977679;28;20058;-89
2023/08/01 05:30:52;;;;;;;13.43;9.48;;;;;;;15.13;100.00;99795.88;4980550;28;20052;-89
2023/08/01 05:33:17;;;;;;;17.20;10.48;;;;;;;15.14;100.00;99789.69;4976325;28;20018;-89
2023/08/01 05:35:42;;;;;;;15.15;10.00;;;;;;;15.15;100.00;99791.38;4986774;28;20385;-89
2023/08/01 05:38:07;;;;;;;15.50;10.20;;;;;;;15.16;100.00;99794.88;4983194;28;20101;-87
2023/08/01 05:40:33;;;;;;;16.05;10.07;;;;;;;15.16;100.00;99794.88;4988300;28;20030;-86
2023/08/01 05:42:59;;;;;;;18.08;10.45;;;;;;;15.17;100.00;99792.13;4978271;28;20363;-86
2023/08/01 05:45:24;;;;;;;14.55;10.13;;;;;;;15.16;100.00;99792.25;4975719;28;20046;-87
2023/08/01 05:47:49;;;;;;;15.73;10.07;;;;;;;15.14;100.00;99789.69;4976148;28;20031;-87
2023/08/01 05:50:14;;;;;;;14.40;9.55;;;;;;;15.13;100.00;99795.03;4978330;28;20030;-89
2023/08/01 05:52:40;;;;;;;14.13;9.07;;;;;;;15.12;100.00;99799.44;4975637;28;20042;-89
2023/08/01 05:55:05;;;;;;;14.45;8.80;;;;;;;15.12;100.00;99798.59;4987372;28;20109;-89
2023/08/01 05:57:31;;;;;;;14.05;9.30;;;;;;;15.14;100.00;99802.81;4986542;28;20033;-89
2023/08/01 05:59:56;;;;;;;15.35;9.15;;;;;;;15.15;100.00;99803.66;4986751;28;20049;-89
2023/08/01 06:02:21;;;;;;;15.40;8.95;;;;;;;15.17;100.00;99807.84;4978178;28;20055;-89
2023/08/01 06:04:46;;;;;;;14.95;9.23;;;;;;;15.22;100.00;99804.94;4988968;28;20038;-89
2023/08/01 06:07:12;;;;;;;14.73;8.70;;;;;;;15.25;100.00;99811.78;4983670;28;20397;-88
2023/08/01 06:09:37;;;;;;;15.65;8.90;;;;;;;15.26;100.00;99814.31;4982498;28;20037;-89
2023/08/01 06:12:02;;;;;;;16.20;8.82;;;;;;;15.28;100.00;99811.59;4979586;28;20474;-90
2023/08/01 06:14:28;;;;;;;15.35;8.95;;;;;;;15.32;100.00;99815.69;4977672;28;20035;-89
2023/08/01 06:16:53;;;;;;;16.23;9.30;;;;;;;15.35;100.00;99817.31;4986637;28;20098;-89
2023/08/01 06:19:19;;;;;;;13.77;8.27;;;;;;;15.38;100.00;99822.34;4992340;28;20026;-88
2023/08/01 06:21:44;;;;;;;12.40;8.30;;;;;;;15.41;100.00;99825.63;4980666;28;20030;-89
2023/08/01 06:24:10;;;;;;;14.52;7.97;;;;;;;15.48;100.00;99820.84;4978772;28;20467;-88
2023/08/01 06:26:35;;;;;;;17.17;8.93;;;;;;;15.51;100.00;99825.91;4979493;28;20081;-89
2023/08/01 06:29:00;;;;;;;14.05;8.32;;;;;;;15.54;100.00;99820.44;4976290;28;20138;-88
2023/08/01 06:31:26;;;;;;;13.80;8.00;;;;;;;15.61;100.00;99826.97;4977231;28;20402;-88
2023/08/01 06:33:51;;;;;;;12.65;7.55;;;;;;;15.65;100.00;99826.78;4982998;28;20073;-90
2023/08/01 06:36:17;;;;;;;13.65;7.93;;;;;;;15.66;100.00;99823.22;4981417;28;20030;-89
2023/08/01 06:38:43;;;;;;;11.93;7.90;;;;;;;15.66;100.00;99824.06;4984993;28;20081;-89
2023/08/01 06:41:08;;;;;;;16.05;7.82;;;;;;;15.66;100.00;99818.81;4978583;28;20426;-89
2023/08/01 06:43:33;;;;;;;14.10;7.70;;;;;;;15.69;100.00;99828.28;4983627;28;20058;-90
2023/08/01 06:45:58;;;;;;;12.43;7.35;;;;;;;15.71;100.00;99826.41;4977625;28;20120;-89
2023/08/01 06:48:24;;;;;;;11.45;7.30;;;;;;;15.73;100.00;99827.13;4982880;28;20066;-89
2023/08/01 06:50:49;;;;;;;12.57;6.97;;;;;;;15.79;100.00;99824.13;4980769;28;20026;-89
2023/08/01 06:53:14;;;;;;;12.15;6.28;;;;;;;15.83;100.00;99836.13;4993114;28;20466;-89
2023/08/01 06:55:39;;;;;;;10.15;6.43;;;;;;;15.88;100.00;99836.69;4994418;28;20033;-89
2023/08/01 06:58:05;;;;;;;11.27;6.43;;;;;;;15.90;100.00;99836.59;4985990;28;20069;-90
2023/08/01 07:00:31;;;;;;;11.80;6.60;;;;;;;15.92;100.00;99846.03;4977884;28;20111;-89
2023/08/01 07:02:57;;;;;;;9.45;5.70;;;;;;;15.95;100.00;99841.53;4975409;28;20084;-89
2023/08/01 07:05:23;;;;;;;12.25;6.78;;;;;;;15.96;100.00;99854.56;4978655;28;20478;-86
2023/08/01 07:07:48;;;;;;;11.90;6.72;;;;;;;16.00;100.00;99856.03;4988808;28;20491;-86
2023/08/01 07:10:14;;;;;;;11.43;6.65;;;;;;;16.02;100.00;99856.78;4980531;28;20058;-87
2023/08/01 07:12:39;;;;;;;11.55;6.43;;;;;;;16.07;100.00;99848.59;4981361;28;20065;-89
2023/08/01 07:15:05;;;;;;;11.90;6.80;;;;;;;16.13;100.00;99845.59;4984144;28;20022;-88
2023/08/01 07:17:30;;;;;;;13.27;6.72;;;;;;;16.18;100.00;99848.78;4976590;28;20470;-88
2023/08/01 07:19:55;;;;;;;12.57;6.30;;;;;;;16.25;100.00;99857.06;4983862;28;20029;-89
2023/08/01 07:22:20;;;;;;;10.88;5.75;;;;;;;16.29;99.58;99860.34;4979822;28;20430;-91
2023/08/01 07:24:46;;;;;;;11.07;5.53;;;;;;;16.31;99.42;99858.44;4977304;28;20033;-90
2023/08/01 07:27:12;;;;;;;9.02;5.47;;;;;;;16.36;99.15;99866.88;4983140;28;20074;-92
2023/08/01 07:29:37;;;;;;;8.90;5.60;;;;;;;16.41;98.98;99851.63;4978465;28;20034;-90
2023/08/01 07:32:03;;;;;;;9.93;5.30;;;;;;;16.46;97.66;99860.06;4976465;28;20501;-90
2023/08/01 07:34:28;;;;;;;11.25;5.18;;;;;;;16.52;97.70;99853.56;4973203;28;20130;-89
2023/08/01 07:36:54;;;;;;;9.68;5.10;;;;;;;16.59;97.12;99857.47;4984094;28;20147;-89
2023/08/01 07:39:19;;;;;;;11.52;5.68;;;;;;;16.62;97.19;99849.41;4986769;28;20710;-91
2023/08/01 07:41:44;;;;;;;8.32;5.07;;;;;;;16.67;96.16;99851.69;4982438;28;20027;-92
2023/08/01 07:44:10;;;;;;;10.55;5.10;;;;;;;16.69;94.95;99847.19;4975409;28;20030;-92
2023/08/01 07:46:35;;;;;;;10.48;4.80;;;;;;;16.71;95.55;99849.69;4982695;28;20043;-90
2023/08/01 07:49:01;;;;;;;8.43;4.43;;;;;;;16.74;95.50;99865.25;4983756;28;20089;-90
2023/08/01 07:51:26;;;;;;;8.07;4.78;;;;;;;16.76;95.38;99864.19;4981830;28;20034;-91
2023/08/01 07:53:54;;;;;;;7.40;4.60;;;;;;;16.81;94.38;99864.75;4982639;28;20390;-92
2023/08/01 07:56:20;;;;;;;9.35;4.93;;;;;;;16.80;94.53;99857.81;4983548;28;20038;-94
2023/08/01 07:58:45;;;;;;;7.68;4.47;;;;;;;16.78;95.45;99859.69;4982450;28;20073;-91
2023/08/01 08:01:10;;;;;;;7.22;4.28;;;;;;;16.81;95.39;99853.41;4982398;28;20022;-91
2023/08/01 08:03:36;;;;;;;7.55;3.90;;;;;;;16.84;94.81;99859.28;4985581;28;20500;-91
2023/08/01 08:06:03;;;;;;;7.85;4.15;;;;;;;16.81;95.55;99859.47;4989336;28;20030;-91
2023/08/01 08:08:28;;;;;;;8.40;4.07;;;;;;;16.74;94.13;99857.38;4987953;28;20022;-93
2023/08/01 08:10:54;;;;;;;9.43;4.20;;;;;;;16.68;94.60;99863.88;4985290;28;20485;-94
2023/08/01 08:13:20;;;;;;;7.40;3.97;;;;;;;16.66;94.78;99861.34;4981257;28;20022;-94
2023/08/01 08:15:45;;;;;;;6.95;4.13;;;;;;;16.71;94.65;99866.31;4990042;28;20038;-91
2023/08/01 08:18:11;;;;;;;7.00;3.80;;;;;;;16.80;94.56;99873.56;4988251;28;20072;-94
2023/08/01 08:20:44;;;;;;;10.05;3.60;;;;;;;16.92;93.11;99865.78;4985243;28;20097;-93
2023/08/01 08:23:10;;;;;;;10.15;4.13;;;;;;;17.03;93.13;99860.69;4978538;28;20536;-91
2023/08/01 08:25:35;;;;;;;7.35;3.60;;;;;;;17.14;92.58;99866.03;4980903;28;20121;-94
2023/08/01 08:28:01;;;;;;;5.18;3.00;;;;;;;17.22;91.60;99862.03;4980347;28;20057;-90
2023/08/01 08:30:26;;;;;;;5.20;2.42;;;;;;;17.20;88.95;99869.19;4987954;28;20034;-91
2023/08/01 08:32:51;;;;;;;6.75;3.00;;;;;;;17.18;89.08;99866.66;4988832;28;20030;-90
2023/08/01 08:35:16;;;;;;;6.53;2.45;;;;;;;17.13;87.65;99869.59;4984119;28;20034;-90
2023/08/01 08:37:42;;;;;;;7.97;2.65;;;;;;;17.09;88.46;99872.56;4984477;28;20018;-92
2023/08/01 08:40:08;;;;;;;5.38;2.47;;;;;;;17.18;89.93;99871.09;4981872;28;20425;-91
2023/08/01 08:42:35;;;;;;;6.30;2.42;;;;;;;17.32;88.97;99885.91;4983039;28;20030;-90
2023/08/01 08:45:01;;;;;;;6.68;2.80;;;;;;;17.45;88.04;99878.84;4984428;28;20022;-90
2023/08/01 08:47:28;;;;;;;5.53;2.40;;;;;;;17.54;86.73;99888.69;4978925;28;20031;-91
2023/08/01 08:49:56;;;;;;;6.68;2.58;;;;;;;17.51;85.85;99886.28;4977277;28;20041;-94
2023/08/01 08:52:21;;;;;;;8.23;2.47;;;;;;;17.44;86.52;99883.25;4981338;28;20026;-92
2023/08/01 08:54:47;;;;;;;5.53;2.67;;;;;;;17.39;88.01;99887.16;4983011;28;20462;-90
2023/08/01 08:57:13;;;;;;;11.10;2.85;;;;;;;17.36;88.43;99889.97;4981899;28;20034;-88
2023/08/01 08:59:38;;;;;;;5.72;2.50;;;;;;;17.35;88.11;99889.16;4978895;28;20037;-88
2023/08/01 09:02:04;;;;;;;5.97;2.30;;;;;;;17.36;87.65;99898.72;4979148;28;20026;-94
2023/08/01 09:04:31;;;;;;;7.18;2.60;;;;;;;17.39;89.20;99889.78;4981795;28;20053;-93
2023/08/01 09:07:01;;;;;;;5.30;2.38;;;;;;;17.40;88.85;99897.56;4984454;28;20050;-93
2023/08/01 09:09:27;;;;;;;4.25;2.40;;;;;;;17.38;87.34;99902.09;4983351;28;20117;-89
2023/08/01 09:11:55;;;;;;;7.00;2.10;;;;;;;17.38;87.89;99901.22;4983663;28;20041;-88
2023/08/01 09:14:21;;;;;;;4.45;2.28;;;;;;;17.38;87.89;99898.59;4981242;28;20083;-90
2023/08/01 09:16:47;;;;;;;8.10;2.70;;;;;;;17.36;87.89;99895.25;4980468;28;20034;-88
2023/08/01 09:19:37;;;;;;;4.85;2.30;;;;;;;17.30;88.10;99896.50;5018636;23;20058;-95
2023/08/01 09:22:10;;;;;;;7.40;2.40;;;;;;;17.26;88.13;99902.91;4987348;28;20022;-95
2023/08/01 09:24:36;;;;;;;4.05;1.85;;;;;;;17.23;88.57;99897.91;4991036;28;20269;-94
2023/08/01 09:27:04;;;;;;;6.72;1.90;;;;;;;17.22;86.75;99907.56;4985596;28;20121;-88
2023/08/01 09:29:31;;;;;;;4.97;1.90;;;;;;;17.23;87.00;99911.03;4985043;28;20041;-86
2023/08/01 09:31:56;;;;;;;4.60;2.00;;;;;;;17.24;87.74;99915.34;4968518;28;20076;-89
2023/08/01 09:34:24;;;;;;;5.85;1.77;;;;;;;17.24;86.40;99915.34;4988971;28;20435;-88
2023/08/01 09:36:50;;;;;;;5.20;1.90;;;;;;;17.26;86.96;99922.19;4986714;28;20030;-86
2023/08/01 09:39:17;;;;;;;4.93;2.08;;;;;;;17.29;85.80;99923.75;4968528;28;20034;-88
2023/08/01 09:41:43;;;;;;;5.13;1.80;;;;;;;17.34;87.44;99913.75;4985939;28;20557;-89
2023/08/01 09:44:15;;;;;;;5.38;1.70;;;;;;;17.45;87.97;99920.91;4986358;28;20065;-90
2023/08/01 09:46:40;;;;;;;;;;;;;;;17.60;88.63;99929.50;4988067;28;20076;-88
2023/08/01 09:49:12;;;;;;;4.35;1.90;;;;;;;17.63;88.12;99929.28;4986465;28;20501;-89
2023/08/01 09:51:50;;;;;;;5.13;2.42;;;;;;;17.64;87.25;99924.88;4987764;28;20118;-89
2023/08/01 09:54:17;;;;;;;4.10;1.90;;;;;;;17.63;87.03;99926.66;4988130;28;20027;-87
2023/08/01 09:56:48;;;;;;;5.40;2.08;;;;;;;17.62;86.34;99929.41;4987653;28;20049;-87
2023/08/01 09:59:19;;;;;;;5.68;1.83;;;;;;;17.60;87.01;99932.97;4971677;28;20087;-88
2023/08/01 10:01:46;;;;;;;4.35;1.75;;;;;;;17.59;86.02;99933.94;4989122;28;20405;-90
2023/08/01 10:04:12;;;;;;;4.35;1.80;;;;;;;17.60;85.68;99932.97;4991192;28;20030;-90
2023/08/01 10:06:41;;;;;;;4.72;1.92;;;;;;;17.60;85.88;99940.03;4987188;28;20088;-90
2023/08/01 10:09:09;;;;;;;6.65;1.83;;;;;;;17.60;85.89;99940.03;4970100;28;20555;-89
2023/08/01 10:11:35;;;;;;;5.88;1.77;;;;;;;17.62;85.70;99947.81;4988668;28;20034;-89
2023/08/01 10:14:03;;;;;;;6.20;1.70;;;;;;;17.60;85.68;99950.53;4989707;28;20018;-90
2023/08/01 10:16:28;;;;;;;5.10;1.80;;;;;;;17.52;85.59;99952.88;4988828;28;20030;-90
2023/08/01 10:18:54;;;;;;;4.88;1.75;;;;;;;17.45;86.81;99955.91;4989291;28;20050;-90
2023/08/01 10:21:21;;;;;;;7.57;2.10;;;;;;;17.39;87.58;99951.09;4990830;28;20053;-89
2023/08/01 10:23:47;;;;;;;6.97;2.00;;;;;;;17.38;86.80;99952.03;4991534;28;20018;-90
2023/08/01 10:26:13;;;;;;;4.93;1.85;;;;;;;17.41;87.09;99943.94;4991527;28;20054;-90
2023/08/01 10:28:40;;;;;;;6.47;2.10;;;;;;;17.47;87.82;99952.34;4990626;28;20390;-91
2023/08/01 10:31:07;;;;;;;4.05;2.00;;;;;;;17.47;86.10;99947.09;4990306;28;20030;-88
2023/08/01 10:33:33;;;;;;;4.95;2.20;;;;;;;17.53;86.24;99950.13;4992711;28;20030;-88
2023/08/01 10:35:59;;;;;;;5.05;2.10;;;;;;;17.61;86.37;99954.84;4988159;28;20125;-90
2023/08/01 10:38:24;;;;;;;6.32;2.38;;;;;;;17.72;87.08;99957.59;4988404;28;20142;-90
2023/08/01 10:40:49;;;;;;;6.75;2.13;;;;;;;17.80;85.95;99950.94;4985470;28;20041;-89
2023/08/01 10:43:21;;;;;;;6.88;2.40;;;;;;;17.87;85.50;99954.81;4984583;28;20404;-90
2023/08/01 10:45:47;;;;;;;5.60;2.22;;;;;;;17.88;85.08;99959.16;4985549;28;20103;-90
2023/08/01 10:48:13;;;;;;;8.55;2.38;;;;;;;17.90;85.28;99957.25;4989385;28;20486;-90
2023/08/01 10:50:39;;;;;;;5.22;1.90;;;;;;;17.89;82.73;99955.56;4987493;28;20058;-88
2023/08/01 10:53:06;;;;;;;8.35;2.20;;;;;;;17.89;83.70;99963.47;4971413;28;20064;-88
2023/08/01 10:55:45;;;;;;;4.78;1.92;;;;;;;17.90;84.74;99962.50;4988691;28;20383;-89
2023/08/01 10:58:11;;;;;;;3.83;1.70;;;;;;;17.91;82.33;99964.19;4989355;28;20033;-91
2023/08/01 11:00:37;;;;;;;6.15;2.08;;;;;;;17.89;82.78;99966.91;4972938;28;20358;-90
2023/08/01 11:03:02;;;;;;;5.03;1.83;;;;;;;17.83;79.44;99971.78;4984890;28;20065;-89
2023/08/01 11:05:29;;;;;;;3.25;1.38;;;;;;;17.78;82.14;99968.63;4986698;28;20034;-90
2023/08/01 11:07:59;;;;;;;3.53;1.73;;;;;;;17.82;82.58;99970.09;4967884;28;20034;-89
2023/08/01 11:10:30;;;;;;;5.97;1.70;;;;;;;17.91;82.87;99966.81;4988555;28;20030;-88
2023/08/01 11:12:56;;;;;;;5.32;1.63;;;;;;;18.01;80.56;99962.59;4985723;28;20069;-88
2023/08/01 11:15:22;;;;;;;5.20;1.63;;;;;;;18.14;82.21;99972.25;4986526;28;20997;-88
2023/08/01 11:17:52;;;;;;;4.95;1.77;;;;;;;18.22;81.20;99983.09;4984351;28;20093;-91